Time;durP1;ratioP1;P1;durP2;ratioP2;P2;SDS_P1;SDS_P2;PMS_P1;PMS_P2;Temp;Humidity;BMP_temperature;BMP_pressure;BME280_temperature;BME280_humidity;BME280_pressure;Samples;Min_cycle;Max_cycle;Signal;HPM_P1;HPM_P2
2022/04/03 00:01:41;;;;;;;;;16.25;13.25;;;;;6.44;42.32;101877.56;5057403;28;45367;-54
2022/04/03 00:04:07;;;;;;;;;24.75;16.00;;;;;6.42;42.17;101882.97;5057074;28;47027;-49
2022/04/03 00:06:32;;;;;;;;;18.00;14.00;;;;;6.44;42.47;101885.50;5057222;28;45372;-55
2022/04/03 00:08:58;;;;;;;;;18.50;16.00;;;;;6.43;41.87;101889.09;5057338;28;45447;-53
2022/04/03 00:11:23;;;;;;;;;17.25;16.50;;;;;6.40;42.10;101886.63;5057683;28;45450;-49
2022/04/03 00:13:49;;;;;;;;;19.50;16.00;;;;;6.39;42.74;101892.88;5057456;28;46125;-55
2022/04/03 00:16:15;;;;;;;;;18.75;17.25;;;;;6.36;42.39;101887.75;5057382;28;45434;-53
2022/04/03 00:18:40;;;;;;;;;15.50;15.50;;;;;6.30;42.85;101883.69;5057285;28;45359;-55
2022/04/03 00:21:06;;;;;;;;;21.00;19.50;;;;;6.28;42.52;101882.06;5057082;28;45419;-51
2022/04/03 00:23:31;;;;;;;;;20.75;15.75;;;;;6.28;42.83;101884.72;5057004;28;45971;-49
2022/04/03 00:25:57;;;;;;;;;18.25;14.00;;;;;6.12;42.29;101866.28;5055628;28;45523;-55
2022/04/03 00:28:26;;;;;;;;;18.00;15.25;;;;;6.21;42.96;101895.66;5057017;28;45390;-55
2022/04/03 00:30:51;;;;;;;;;21.75;14.75;;;;;6.07;43.65;101865.69;5057389;28;45390;-50
2022/04/03 00:33:17;;;;;;;;;11.00;11.00;;;;;6.09;43.37;101882.31;5056683;28;46150;-52
2022/04/03 00:35:42;;;;;;;;;17.25;15.25;;;;;6.11;43.00;101891.88;5056727;28;45370;-52
2022/04/03 00:38:08;;;;;;;;;2.00;0.00;;;;;6.09;43.53;101885.81;5056808;28;45379;-54
2022/04/03 00:40:33;;;;;;;;;16.75;14.00;;;;;6.10;43.25;101890.16;5056872;28;45456;-53
2022/04/03 00:42:59;;;;;;;;;14.50;13.75;;;;;6.09;43.54;101893.72;5056392;28;45885;-54
2022/04/03 00:45:25;;;;;;;;;20.50;18.00;;;;;6.08;43.77;101894.69;5056441;28;45361;-52
2022/04/03 00:47:53;;;;;;;;;19.75;15.25;;;;;6.05;43.41;101886.94;5056747;28;45253;-54
2022/04/03 00:50:18;;;;;;;;;15.50;13.25;;;;;6.07;43.49;101886.81;5055499;28;45443;-53
2022/04/03 00:52:44;;;;;;;;;14.25;11.25;;;;;6.08;43.33;101899.13;5056605;28;46009;-53
2022/04/03 00:55:09;;;;;;;;;14.75;14.25;;;;;6.06;43.31;101900.97;5056180;28;45364;-55
2022/04/03 00:57:35;;;;;;;;;13.75;13.75;;;;;6.00;43.51;101892.47;5056367;28;45437;-54
2022/04/03 01:00:01;;;;;;;;;16.75;16.00;;;;;5.97;43.38;101892.66;5056706;28;45444;-53
2022/04/03 01:02:27;;;;;;;;;14.25;12.00;;;;;5.95;43.74;101891.06;5056228;28;45914;-51
2022/04/03 01:04:52;;;;;;;;;17.25;15.25;;;;;5.96;43.88;101890.09;5056287;28;45317;-54
2022/04/03 01:07:18;;;;;;;;;19.75;14.00;;;;;5.96;43.63;101885.66;5056520;28;45372;-54
2022/04/03 01:09:44;;;;;;;;;18.25;14.75;;;;;5.93;44.19;101882.34;5056618;28;45519;-53
2022/04/03 01:12:10;;;;;;;;;18.50;14.50;;;;;5.93;44.79;101882.34;5056288;28;46952;-53
2022/04/03 01:14:40;;;;;;;;;15.50;15.50;;;;;5.93;44.02;101887.63;5055570;28;45502;-53
2022/04/03 01:17:07;;;;;;;;;17.75;17.50;;;;;5.89;44.85;101881.63;5056330;28;45415;-53
2022/04/03 01:19:33;;;;;;;;;15.75;14.00;;;;;5.90;44.27;101878.09;5056162;28;45432;-54
2022/04/03 01:21:59;;;;;;;;;19.50;14.75;;;;;5.91;44.23;101879.78;5056137;28;46188;-55
2022/04/03 01:24:25;;;;;;;;;12.50;12.50;;;;;5.91;44.60;101881.56;5056025;28;45406;-52
2022/04/03 01:26:52;;;;;;;;;14.00;12.75;;;;;5.87;44.51;101880.03;5056256;28;45329;-51
2022/04/03 01:29:18;;;;;;;;;18.00;16.00;;;;;5.84;45.11;101883.69;5055960;28;45406;-52
2022/04/03 01:31:46;;;;;;;;;17.50;14.25;;;;;5.79;45.05;101871.72;5056052;28;45926;-52
2022/04/03 01:34:12;;;;;;;;;15.50;15.00;;;;;5.82;44.89;101882.09;5054749;28;45472;-53
2022/04/03 01:36:38;;;;;;;;;14.25;14.25;;;;;5.77;44.46;101874.41;5055878;28;45466;-52
2022/04/03 01:39:03;;;;;;;;;20.25;15.00;;;;;5.76;44.69;101876.22;5056200;28;45404;-53
2022/04/03 01:41:29;;;;;;;;;20.00;15.75;;;;;5.78;44.81;101888.50;5055572;28;45392;-54
2022/04/03 01:43:54;;;;;;;;;17.75;15.00;;;;;5.78;45.53;101884.06;5055742;28;45484;-54
2022/04/03 01:46:19;;;;;;;;;14.75;13.00;;;;;5.78;45.54;101883.22;5055843;28;45340;-53
2022/04/03 01:48:45;;;;;;;;;17.00;12.25;;;;;5.78;45.19;101877.94;5056429;28;45376;-52
2022/04/03 01:51:10;;;;;;;;;16.50;11.00;;;;;5.72;44.73;101876.47;5056187;28;45320;-53
2022/04/03 01:53:36;;;;;;;;;12.00;12.00;;;;;5.69;45.21;101874.88;5055329;28;45538;-54
2022/04/03 01:56:04;;;;;;;;;21.75;16.50;;;;;5.73;45.29;101883.44;5055630;28;45208;-52
2022/04/03 01:58:30;;;;;;;;;13.25;13.25;;;;;5.72;45.76;101881.75;5055155;28;45786;-52
2022/04/03 02:00:56;;;;;;;;;15.00;15.00;;;;;5.72;45.74;101876.47;5055235;28;46284;-54
2022/04/03 02:03:22;;;;;;;;;17.00;13.00;;;;;5.74;45.77;101883.38;5055021;28;45423;-53
2022/04/03 02:05:48;;;;;;;;;10.75;9.50;;;;;5.75;46.01;101881.59;5055366;28;45523;-54
2022/04/03 02:08:13;;;;;;;;;16.75;12.50;;;;;5.74;45.08;101882.53;5055240;28;45533;-52
2022/04/03 02:10:39;;;;;;;;;20.00;15.25;;;;;5.70;44.93;101879.22;5055025;28;45990;-52
2022/04/03 02:13:05;;;;;;;;;20.75;12.50;;;;;5.72;44.94;101885.25;5055080;28;45341;-53
2022/04/03 02:15:31;;;;;;;;;16.25;14.00;;;;;5.68;45.38;101869.69;5055085;28;45368;-53
2022/04/03 02:17:57;;;;;;;;;15.75;13.00;;;;;5.72;44.97;101882.59;5055170;28;45353;-52
2022/04/03 02:20:22;;;;;;;;;13.25;13.25;;;;;5.70;45.58;101875.72;5054937;28;46137;-55
2022/04/03 02:22:48;;;;;;;;;14.00;11.00;;;;;5.71;45.85;101880.06;5055225;28;45365;-55
2022/04/03 02:25:14;;;;;;;;;12.75;12.00;;;;;5.73;44.81;101880.81;5054998;28;45466;-54
2022/04/03 02:27:43;;;;;;;;;16.25;13.25;;;;;5.62;45.45;101862.97;5057541;28;45435;-54
2022/04/03 02:30:09;;;;;;;;;16.00;12.50;;;;;5.69;45.77;101882.81;5058216;28;45513;-50
2022/04/03 02:32:40;;;;;;;;;21.50;15.75;;;;;5.68;45.73;101889.00;5058274;28;45466;-53
2022/04/03 02:35:07;;;;;;;;;16.00;13.50;;;;;5.67;46.83;101881.19;5058620;28;45542;-53
2022/04/03 02:37:34;;;;;;;;;12.00;12.00;;;;;5.67;45.59;101882.03;5058479;28;45373;-52
2022/04/03 02:40:00;;;;;;;;;22.50;12.25;;;;;5.66;45.58;101884.75;5058218;28;45423;-51
2022/04/03 02:42:25;;;;;;;;;15.00;12.50;;;;;5.61;46.43;101878.91;5058091;28;45451;-54
2022/04/03 02:44:51;;;;;;;;;11.00;9.25;;;;;5.63;46.26;101891.06;5058212;28;45451;-53
2022/04/03 02:47:17;;;;;;;;;21.25;17.00;;;;;5.61;46.70;101885.03;5058677;28;45466;-53
2022/04/03 02:49:43;;;;;;;;;16.75;14.00;;;;;5.54;46.21;101869.63;5058012;28;47637;-53
2022/04/03 02:52:08;;;;;;;;;22.00;16.25;;;;;5.63;46.71;101884.94;5058229;28;45487;-53
2022/04/03 02:54:34;;;;;;;;;13.25;10.50;;;;;5.62;45.92;101885.88;5058004;28;45413;-53
2022/04/03 02:57:00;;;;;;;;;16.25;13.00;;;;;5.60;46.17;101887.72;5058342;28;45422;-54
2022/04/03 02:59:25;;;;;;;;;18.75;13.50;;;;;5.60;45.81;101880.66;5057742;28;46165;-53
2022/04/03 03:01:51;;;;;;;;;16.25;13.25;;;;;5.61;46.25;101884.19;5057865;28;45476;-54
2022/04/03 03:04:16;;;;;;;;;16.50;11.75;;;;;5.62;46.86;101891.16;5058096;28;45517;-54
2022/04/03 03:06:41;;;;;;;;;24.00;16.75;;;;;5.58;46.45;101881.69;5058020;28;45431;-54
2022/04/03 03:09:07;;;;;;;;;14.50;12.00;;;;;5.59;47.36;101897.44;5057678;28;47283;-54
2022/04/03 03:11:32;;;;;;;;;14.25;14.00;;;;;5.60;46.46;101891.22;5057788;28;45388;-54
2022/04/03 03:13:57;;;;;;;;;14.00;14.00;;;;;5.54;47.59;101888.09;5058005;28;45453;-51
2022/04/03 03:16:23;;;;;;;;;16.25;14.25;;;;;5.50;46.87;101888.25;5058327;28;45436;-51
2022/04/03 03:18:48;;;;;;;;;17.00;17.00;;;;;5.55;46.62;101898.56;5057585;28;46189;-55
2022/04/03 03:21:15;;;;;;;;;1.75;1.75;;;;;5.52;46.65;101896.09;5057637;28;45521;-53
2022/04/03 03:23:41;;;;;;;;;12.00;9.00;;;;;5.51;47.38;101897.03;5057672;28;45514;-50
2022/04/03 03:26:06;;;;;;;;;13.00;12.25;;;;;5.49;47.05;101902.41;5058125;28;45590;-51
2022/04/03 03:28:32;;;;;;;;;13.00;11.25;;;;;5.46;47.29;101905.19;5057579;28;47053;-52
2022/04/03 03:30:57;;;;;;;;;16.50;14.75;;;;;5.46;47.52;101910.47;5057546;28;45320;-49
2022/04/03 03:33:23;;;;;;;;;14.25;14.25;;;;;5.45;46.96;101910.56;5057963;28;45804;-54
2022/04/03 03:35:48;;;;;;;;;14.00;11.00;;;;;5.44;46.23;101903.59;5057804;28;45478;-54
2022/04/03 03:38:14;;;;;;;;;12.50;11.75;;;;;5.44;47.29;101903.59;5056882;28;46006;-53
2022/04/03 03:40:39;;;;;;;;;17.75;15.25;;;;;5.45;46.92;101907.94;5057268;28;45377;-54
2022/04/03 03:43:05;;;;;;;;;16.50;12.00;;;;;5.42;47.44;101900.19;5057985;28;45459;-55
2022/04/03 03:45:31;;;;;;;;;19.25;14.75;;;;;5.44;47.96;101909.72;5057241;28;45642;-53
2022/04/03 03:47:59;;;;;;;;;8.50;8.50;;;;;5.43;47.48;101905.34;5057145;28;47113;-51
2022/04/03 03:50:25;;;;;;;;;15.75;12.50;;;;;5.42;47.75;101906.31;5057180;28;45419;-51
2022/04/03 03:52:50;;;;;;;;;13.75;13.75;;;;;5.41;48.12;101907.25;5057414;28;45480;-53
2022/04/03 03:55:16;;;;;;;;;16.00;10.75;;;;;5.40;47.13;101905.56;5057336;28;45479;-53
2022/04/03 03:57:45;;;;;;;;;15.50;12.50;;;;;5.38;47.74;101911.84;5056864;28;47165;-54
2022/04/03 04:00:11;;;;;;;;;13.25;13.00;;;;;5.34;47.44;101907.66;5056843;28;45494;-53
2022/04/03 04:02:37;;;;;;;;;11.00;10.75;;;;;5.32;48.08;101909.56;5056966;28;45483;-53
2022/04/03 04:05:03;;;;;;;;;18.50;14.00;;;;;5.31;48.05;101905.19;5056847;28;45464;-54
2022/04/03 04:07:43;;;;;;;;;13.25;10.25;;;;;5.31;48.03;101903.44;5056817;28;45516;-55
2022/04/03 04:10:12;;;;;;;;;12.50;8.50;;;;;5.25;48.43;101893.19;5056550;28;45464;-53
2022/04/03 04:12:39;;;;;;;;;14.00;14.00;;;;;5.27;48.47;101901.88;5056722;28;45518;-53
2022/04/03 04:15:05;;;;;;;;;12.50;12.50;;;;;5.30;48.26;101909.63;5056673;28;45344;-54
2022/04/03 04:17:38;;;;;;;;;13.50;10.00;;;;;5.29;47.80;101920.25;5056561;28;45419;-56
2022/04/03 04:20:09;;;;;;;;;15.00;14.00;;;;;5.26;47.65;101919.47;5056712;28;45519;-52
2022/04/03 04:22:35;;;;;;;;;10.75;9.00;;;;;5.27;47.37;101923.00;5057157;28;45971;-54
2022/04/03 04:25:01;;;;;;;;;11.50;11.50;;;;;5.23;48.18;101918.81;5056992;28;45530;-54
2022/04/03 04:27:26;;;;;;;;;12.00;10.00;;;;;5.13;47.72;101907.03;5056880;28;45484;-55
2022/04/03 04:29:52;;;;;;;;;14.50;12.00;;;;;5.16;47.77;101917.44;5056464;28;45448;-54
2022/04/03 04:32:17;;;;;;;;;15.50;11.00;;;;;5.22;48.13;101925.00;5056534;28;45509;-54
2022/04/03 04:34:42;;;;;;;;;14.75;14.75;;;;;5.22;47.84;101940.84;5056791;28;45506;-55
2022/04/03 04:37:08;;;;;;;;;12.50;12.50;;;;;5.20;48.46;101935.66;5056245;28;45944;-54
2022/04/03 04:39:33;;;;;;;;;20.00;13.75;;;;;5.14;47.84;101932.47;5056383;28;45495;-51
2022/04/03 04:41:58;;;;;;;;;10.25;8.00;;;;;5.09;48.55;101938.00;5056342;28;45388;-55
2022/04/03 04:44:24;;;;;;;;;5.00;5.00;;;;;5.01;47.78;101934.94;5056322;28;45365;-53
2022/04/03 04:46:49;;;;;;;;;14.25;10.75;;;;;4.86;48.05;101927.84;5056269;28;46158;-52
2022/04/03 04:49:16;;;;;;;;;14.50;11.00;;;;;4.88;48.65;101939.16;5055432;28;45421;-55
2022/04/03 04:51:43;;;;;;;;;12.50;11.50;;;;;4.83;48.96;101946.44;5056399;28;45155;-53
2022/04/03 04:54:08;;;;;;;;;14.50;11.00;;;;;4.79;48.52;101952.81;5056766;28;45533;-52
2022/04/03 04:56:35;;;;;;;;;13.25;10.00;;;;;4.69;48.90;101937.47;5056525;28;46902;-54
2022/04/03 04:59:01;;;;;;;;;16.75;12.75;;;;;4.65;49.53;101949.13;5056842;28;45526;-55
2022/04/03 05:01:27;;;;;;;;;12.75;12.00;;;;;4.62;48.99;101945.78;5056665;28;45337;-53
2022/04/03 05:03:52;;;;;;;;;11.00;10.50;;;;;4.61;49.79;101952.00;5056877;28;45378;-54
2022/04/03 05:06:18;;;;;;;;;9.50;8.25;;;;;4.54;49.89;101951.44;5056967;28;46878;-52
2022/04/03 05:08:44;;;;;;;;;17.50;10.00;;;;;4.52;49.52;101953.31;5056726;28;45332;-53
2022/04/03 05:11:12;;;;;;;;;17.00;11.50;;;;;4.46;48.99;101958.88;5057258;28;45398;-53
2022/04/03 05:13:38;;;;;;;;;9.25;9.25;;;;;4.32;49.34;101935.03;5056889;28;45453;-53
2022/04/03 05:16:04;;;;;;;;;13.00;8.00;;;;;4.42;50.20;101958.19;5056278;28;46286;-53
2022/04/03 05:18:29;;;;;;;;;12.00;10.25;;;;;4.37;50.06;101960.19;5056616;28;45348;-50
2022/04/03 05:20:55;;;;;;;;;12.75;8.25;;;;;4.37;48.83;101952.28;5056872;28;45815;-52
2022/04/03 05:23:20;;;;;;;;;10.75;8.50;;;;;4.34;49.40;101960.38;5057001;28;45332;-51
2022/04/03 05:25:45;;;;;;;;;13.25;7.25;;;;;4.29;50.44;101970.25;5055306;28;47031;-54
2022/04/03 05:28:11;;;;;;;;;13.25;13.25;;;;;4.26;49.89;101967.81;5056180;28;45395;-53
2022/04/03 05:30:36;;;;;;;;;13.00;11.75;;;;;4.19;49.54;101959.34;5056498;28;45472;-52
2022/04/03 05:33:02;;;;;;;;;13.75;10.00;;;;;4.19;49.42;101974.28;5056329;28;45357;-53
2022/04/03 05:35:27;;;;;;;;;15.75;11.00;;;;;4.15;49.18;101973.59;5056363;28;46046;-53
2022/04/03 05:37:52;;;;;;;;;11.50;10.00;;;;;4.14;50.18;101978.94;5055153;28;46117;-52
2022/04/03 05:40:19;;;;;;;;;12.00;12.00;;;;;4.12;50.29;101975.50;5056481;28;45387;-53
2022/04/03 05:42:44;;;;;;;;;12.75;11.25;;;;;4.08;50.46;101977.44;5056591;28;45392;-53
2022/04/03 05:45:10;;;;;;;;;9.75;9.00;;;;;4.09;50.55;101984.44;5056142;28;45405;-53
2022/04/03 05:47:36;;;;;;;;;10.75;10.75;;;;;4.08;49.63;101984.47;5056131;28;45407;-53
2022/04/03 05:50:02;;;;;;;;;15.75;11.00;;;;;4.05;50.56;101985.50;5056539;28;45308;-54
2022/04/03 05:52:37;;;;;;;;;8.75;7.25;;;;;4.03;50.37;101979.44;5056607;28;45443;-55
2022/04/03 05:55:03;;;;;;;;;10.00;9.25;;;;;4.03;49.58;101979.44;5054517;28;46094;-52
2022/04/03 05:57:28;;;;;;;;;12.75;11.75;;;;;4.00;50.18;101982.22;5056254;28;45240;-52
2022/04/03 05:59:53;;;;;;;;;12.75;7.00;;;;;4.05;49.89;101997.81;5056148;28;45413;-50
2022/04/03 06:02:19;;;;;;;;;12.50;10.50;;;;;4.03;50.27;101989.13;5059615;28;45444;-53
2022/04/03 06:04:44;;;;;;;;;18.00;11.50;;;;;4.05;50.36;101992.56;5059593;28;47195;-52
2022/04/03 06:07:09;;;;;;;;;15.75;10.75;;;;;4.02;49.72;101988.28;5060256;28;45239;-52
2022/04/03 06:09:35;;;;;;;;;14.75;13.50;;;;;3.95;49.93;101971.06;5060154;28;45325;-53
2022/04/03 06:12:00;;;;;;;;;20.50;12.50;;;;;4.02;50.24;101985.66;5060408;28;45266;-53
2022/04/03 06:14:25;;;;;;;;;16.25;12.25;;;;;4.09;49.29;101988.81;5059612;28;46133;-52
2022/04/03 06:16:51;;;;;;;;;5.00;5.00;;;;;4.09;49.67;102000.22;5059697;28;45343;-53
2022/04/03 06:19:16;;;;;;;;;14.75;13.00;;;;;4.10;48.94;101996.66;5059582;28;45448;-52
2022/04/03 06:21:41;;;;;;;;;15.75;13.00;;;;;4.10;49.88;101999.28;5059890;28;45486;-50
2022/04/03 06:24:07;;;;;;;;;13.75;10.75;;;;;4.11;49.45;102006.25;5059378;28;45412;-52
2022/04/03 06:26:33;;;;;;;;;13.25;12.00;;;;;4.07;49.37;102004.69;5059533;28;45501;-53
2022/04/03 06:28:58;;;;;;;;;16.00;12.00;;;;;4.19;49.89;102013.78;5059421;28;45328;-52
2022/04/03 06:31:24;;;;;;;;;8.25;8.25;;;;;4.21;48.77;102017.19;5060081;28;45460;-53
2022/04/03 06:33:49;;;;;;;;;13.00;10.00;;;;;4.18;48.58;102012.09;5059393;28;46199;-52
2022/04/03 06:36:15;;;;;;;;;17.75;12.75;;;;;4.21;49.44;102028.59;5059633;28;45311;-52
2022/04/03 06:38:40;;;;;;;;;20.00;10.50;;;;;4.22;48.83;102029.47;5059615;28;45455;-51
2022/04/03 06:41:07;;;;;;;;;15.50;13.00;;;;;4.24;49.42;102031.06;5059653;28;45308;-53
2022/04/03 06:43:33;;;;;;;;;16.50;12.50;;;;;4.15;48.62;102013.09;5059470;28;46944;-53
2022/04/03 06:45:59;;;;;;;;;17.50;14.00;;;;;4.28;48.89;102025.66;5059435;28;45224;-53
2022/04/03 06:48:26;;;;;;;;;14.50;11.50;;;;;4.33;48.56;102029.78;5059197;28;45404;-51
2022/04/03 06:50:52;;;;;;;;;20.25;13.25;;;;;4.22;48.73;102019.78;5059604;28;45429;-53
2022/04/03 06:53:17;;;;;;;;;16.00;10.75;;;;;4.38;48.41;102035.69;5059674;28;46298;-53
2022/04/03 06:55:42;;;;;;;;;15.00;11.50;;;;;4.39;48.11;102036.53;5059209;28;45360;-53
2022/04/03 06:58:08;;;;;;;;;12.50;8.00;;;;;4.43;48.96;102041.59;5059258;28;45558;-55
2022/04/03 07:00:37;;;;;;;;;16.50;11.00;;;;;4.43;48.30;102052.13;5059840;28;45503;-52
2022/04/03 07:03:02;;;;;;;;;16.50;11.75;;;;;4.47;47.56;102053.69;5059388;28;46207;-49
2022/04/03 07:05:27;;;;;;;;;17.25;13.00;;;;;4.50;48.35;102056.13;5059281;28;45169;-52
2022/04/03 07:07:53;;;;;;;;;18.50;12.75;;;;;4.57;47.26;102058.50;5059250;28;45301;-52
2022/04/03 07:10:20;;;;;;;;;16.50;15.00;;;;;4.60;48.26;102056.56;5059510;28;45237;-49
2022/04/03 07:12:45;;;;;;;;;16.75;14.00;;;;;4.68;48.18;102061.47;5058155;28;47399;-53
2022/04/03 07:15:12;;;;;;;;;14.25;13.75;;;;;4.79;47.73;102060.91;5059420;28;45818;-52
2022/04/03 07:17:42;;;;;;;;;14.25;13.00;;;;;4.94;47.11;102052.22;5059655;28;45723;-53
2022/04/03 07:20:08;;;;;;;;;9.75;9.00;;;;;5.35;46.99;102059.75;5058554;28;45273;-52
2022/04/03 07:22:34;;;;;;;;;14.00;12.50;;;;;6.67;45.34;102054.22;5058761;28;45383;-53
2022/04/03 07:24:59;;;;;;;;;18.25;11.75;;;;;8.05;43.10;102050.19;5059031;28;45281;-54
2022/04/03 07:27:26;;;;;;;;;21.50;11.50;;;;;8.83;42.12;102053.06;5058914;28;45332;-53
2022/04/03 07:29:51;;;;;;;;;11.50;10.00;;;;;8.73;40.82;102051.03;5058707;28;45677;-51
2022/04/03 07:32:16;;;;;;;;;15.00;10.50;;;;;8.95;40.59;102055.72;5058178;28;46509;-52
2022/04/03 07:34:42;;;;;;;;;14.00;14.00;;;;;9.31;39.38;102058.59;5058347;28;45446;-52
2022/04/03 07:37:07;;;;;;;;;11.75;9.50;;;;;9.70;39.17;102060.31;5058008;28;45345;-52
2022/04/03 07:39:33;;;;;;;;;13.00;12.75;;;;;10.13;39.53;102058.06;5058551;28;45372;-51
2022/04/03 07:41:59;;;;;;;;;9.00;9.00;;;;;10.66;38.03;102047.09;5057892;28;46297;-51
2022/04/03 07:44:24;;;;;;;;;13.75;11.25;;;;;11.40;36.89;102047.63;5057920;28;45328;-53
2022/04/03 07:46:50;;;;;;;;;13.00;13.00;;;;;12.54;35.02;102050.00;5058375;28;45376;-50
2022/04/03 07:49:15;;;;;;;;;11.00;9.50;;;;;13.61;32.86;102049.75;5057723;28;45435;-50
2022/04/03 07:51:41;;;;;;;;;10.75;10.00;;;;;14.57;30.55;102055.47;5057483;28;47314;-51
2022/04/03 07:54:06;;;;;;;;;16.00;10.67;;;;;14.68;30.45;102052.66;5057702;28;45487;-55
2022/04/03 07:56:32;;;;;;;;;11.33;11.00;;;;;13.58;31.66;102047.34;5058137;28;45747;-52
2022/04/03 07:58:58;;;;;;;;;9.33;9.33;;;;;13.05;31.29;102055.44;5058449;28;45202;-54
2022/04/03 08:01:23;;;;;;;;;11.00;11.00;;;;;14.07;31.88;102059.03;5057752;28;46371;-51
2022/04/03 08:03:49;;;;;;;;;10.00;9.67;;;;;15.36;30.14;102057.91;5057589;28;45192;-51
2022/04/03 08:06:14;;;;;;;;;11.33;8.33;;;;;16.39;29.78;102057.69;5057686;28;46124;-55
2022/04/03 08:08:41;;;;;;;;;9.33;9.00;;;;;17.36;28.53;102055.91;5057981;28;45241;-54
2022/04/03 08:11:07;;;;;;;;;10.67;10.67;;;;;18.14;25.46;102055.78;5057479;28;46266;-54
2022/04/03 08:13:33;;;;;;;;;12.33;9.00;;;;;18.69;27.27;102063.28;5056197;28;45427;-55
2022/04/03 08:15:58;;;;;;;;;10.00;10.00;;;;;19.20;25.46;102048.59;5057761;28;45439;-55
2022/04/03 08:18:24;;;;;;;;;7.67;6.00;;;;;19.56;23.86;102064.38;5058000;28;45422;-53
2022/04/03 08:20:51;;;;;;;;;10.67;8.67;;;;;19.77;23.17;102061.13;5055653;28;46355;-51
2022/04/03 08:23:16;;;;;;;;;12.33;9.67;;;;;20.32;22.01;102064.72;5057254;28;45339;-53
2022/04/03 08:25:44;;;;;;;;;11.33;10.00;;;;;20.68;21.96;102046.91;5056485;28;45386;-53
2022/04/03 08:28:10;;;;;;;;;10.00;7.67;;;;;20.93;22.40;102060.22;5057614;28;45411;-54
2022/04/03 08:30:37;;;;;;;;;10.67;10.33;;;;;20.86;24.01;102059.28;5056780;28;46079;-53
2022/04/03 08:33:06;;;;;;;;;12.33;7.00;;;;;20.54;23.11;102069.31;5057093;28;45577;-53
2022/04/03 08:35:37;;;;;;;;;7.00;7.00;;;;;20.09;22.59;102062.81;5057118;28;45395;-53
2022/04/03 08:38:04;;;;;;;;;7.00;7.00;;;;;19.98;21.24;102057.81;5057383;28;45308;-54
2022/04/03 08:40:30;;;;;;;;;7.67;7.67;;;;;20.58;22.93;102065.25;5056611;28;46354;-54
2022/04/03 08:42:56;;;;;;;;;6.67;6.67;;;;;21.09;21.56;102060.06;5056841;28;45301;-53
2022/04/03 08:45:22;;;;;;;;;7.00;7.00;;;;;21.53;20.40;102064.72;5057046;28;45488;-51
2022/04/03 08:47:59;;;;;;;;;8.00;7.00;;;;;21.75;19.85;102052.09;5057401;28;45267;-54
2022/04/03 08:50:29;;;;;;;;;6.33;6.33;;;;;21.85;21.16;102063.47;5056584;28;46173;-53
2022/04/03 08:52:59;;;;;;;;;8.00;7.00;;;;;21.63;21.69;102062.56;5056562;28;45478;-54
2022/04/03 08:55:24;;;;;;;;;7.67;6.33;;;;;21.41;20.59;102072.47;5056480;28;45473;-52
2022/04/03 08:57:50;;;;;;;;;6.33;6.33;;;;;20.65;22.43;102070.78;5057013;28;45511;-55
2022/04/03 09:00:16;;;;;;;;;7.67;7.67;;;;;20.16;20.90;102063.78;5056144;28;46014;-53
2022/04/03 09:02:43;;;;;;;;;9.67;6.00;;;;;20.03;21.81;102057.28;5056651;28;45360;-52
2022/04/03 09:05:11;;;;;;;;;4.67;4.67;;;;;19.98;24.21;102062.41;5056479;28;45451;-52
2022/04/03 09:07:37;;;;;;;;;6.50;6.00;;;;;19.93;23.12;102063.75;5056812;28;45427;-53
2022/04/03 09:10:11;;;;;;;;;4.50;4.50;;;;;20.03;21.35;102062.69;5056230;28;46174;-54
2022/04/03 09:12:46;;;;;;;;;4.25;4.25;;;;;20.26;22.31;102062.72;5056586;28;45512;-52
2022/04/03 09:15:18;;;;;;;;;8.25;7.00;;;;;20.56;21.09;102063.72;5056343;28;45350;-51
2022/04/03 09:17:52;;;;;;;;;7.50;6.00;;;;;20.93;23.17;102063.75;5056660;28;45430;-54
2022/04/03 09:20:22;;;;;;;;;6.50;5.00;;;;;21.21;20.21;102054.22;5056186;28;46245;-54
2022/04/03 09:22:55;;;;;;;;;6.00;4.50;;;;;21.58;21.71;102062.28;5056420;28;45402;-52
2022/04/03 09:25:41;;;;;;;;;4.50;4.50;;;;;22.32;22.82;102058.63;5056327;28;45409;-54
2022/04/03 09:28:11;;;;;;;;;6.00;4.75;;;;;24.25;19.57;102069.78;5056410;28;45411;-53
2022/04/03 09:30:43;;;;;;;;;3.75;3.75;;;;;25.94;16.19;102057.56;5056144;28;45458;-55
2022/04/03 09:33:10;;;;;;;;;4.50;4.50;;;;;28.16;15.40;102060.63;5056142;28;45400;-54
2022/04/03 09:35:58;;;;;;;;;3.00;2.50;;;;;29.78;17.15;102050.03;5055605;28;45302;-53
2022/04/03 09:38:27;;;;;;;;;2.75;2.75;;;;;30.85;13.07;102070.44;5056281;28;45432;-55
2022/04/03 09:40:53;;;;;;;;;4.20;3.00;;;;;31.46;12.17;102048.50;5055949;28;47137;-54
2022/04/03 09:43:24;;;;;;;;;2.60;2.60;;;;;32.00;14.41;102057.72;5056153;28;45374;-54
2022/04/03 09:45:52;;;;;;;;;3.00;2.80;;;;;32.74;11.60;102047.97;5055924;28;45364;-52
2022/04/03 09:48:27;;;;;;;;;2.20;2.20;;;;;33.55;10.43;102044.09;5056487;28;45294;-56
2022/04/03 09:51:07;;;;;;;;;1.00;1.00;;;;;34.35;10.49;102037.13;5055825;28;47057;-55
2022/04/03 09:53:53;;;;;;;;;1.80;1.80;;;;;35.28;10.59;102040.66;5055612;28;45480;-53
2022/04/03 09:56:25;;;;;;;;;1.20;1.20;;;;;35.84;8.79;102034.88;5056191;28;45420;-55
2022/04/03 09:58:51;;;;;;;;;0.60;0.60;;;;;36.33;8.15;102045.94;5056388;28;45340;-55
2022/04/03 10:01:22;;;;;;;;;1.75;1.75;;;;;36.77;8.49;102041.41;5056254;28;45946;-56
2022/04/03 10:03:49;;;;;;;;;1.40;1.40;;;;;37.19;8.84;102035.16;5056073;28;45414;-56
2022/04/03 10:06:14;;;;;;;;;0.60;0.60;;;;;37.36;9.02;102040.22;5055699;28;45438;-54
2022/04/03 10:08:41;;;;;;;;;1.50;1.50;;;;;37.11;8.84;102038.56;5056044;28;45212;-54
2022/04/03 10:11:08;;;;;;;;;1.00;1.00;;;;;37.37;8.36;102036.31;5055483;28;46359;-53
2022/04/03 10:13:36;;;;;;;;;2.40;0.20;;;;;37.70;8.02;102045.63;5055861;28;45367;-54
2022/04/03 10:16:02;;;;;;;;;0.80;0.60;;;;;36.73;8.15;102038.38;5056014;28;45328;-55
2022/04/03 10:18:27;;;;;;;;;1.75;1.75;;;;;36.48;8.83;102043.03;5056150;28;45276;-54
2022/04/03 10:20:52;;;;;;;;;4.50;3.00;;;;;36.03;7.17;102040.59;5055441;28;45297;-56
2022/04/03 10:23:21;;;;;;;;;1.00;1.00;;;;;36.19;9.50;102037.41;5055629;28;45361;-57
2022/04/03 10:25:49;;;;;;;;;1.20;1.20;;;;;36.09;8.73;102011.75;5055468;28;45453;-55
2022/04/03 10:28:18;;;;;;;;;3.60;1.40;;;;;34.70;8.76;102032.72;5055786;28;45296;-53
2022/04/03 10:30:44;;;;;;;;;3.00;3.00;;;;;35.21;9.10;102043.69;5055392;28;46677;-55
2022/04/03 10:33:20;;;;;;;;;6.75;6.50;;;;;34.76;8.05;102050.94;5055530;28;45423;-56
2022/04/03 10:35:59;;;;;;;;;5.80;4.20;;;;;35.14;9.30;102044.00;5055665;28;45286;-56
2022/04/03 10:38:34;;;;;;;;;6.00;6.00;;;;;34.23;10.22;102037.41;5055838;28;45387;-56
2022/04/03 10:40:59;;;;;;;;;9.20;5.20;;;;;33.53;9.09;102034.13;5055433;28;46236;-56
2022/04/03 10:43:29;;;;;;;;;5.00;3.00;;;;;33.80;10.35;102033.16;5055594;28;45242;-55
2022/04/03 10:45:55;;;;;;;;;2.60;2.20;;;;;31.64;10.66;102047.34;5055715;28;45315;-54
2022/04/03 10:48:21;;;;;;;;;4.20;4.20;;;;;31.76;9.69;102040.63;5057548;28;45374;-55
2022/04/03 10:50:56;;;;;;;;;5.00;3.00;;;;;30.70;10.72;102037.19;5058739;28;45485;-54
2022/04/03 10:53:27;;;;;;;;;6.20;4.40;;;;;30.35;11.66;102034.69;5059154;28;45358;-56
2022/04/03 10:55:55;;;;;;;;;4.00;4.00;;;;;29.26;11.14;102022.59;5058756;28;45373;-54
2022/04/03 10:58:21;;;;;;;;;5.20;4.00;;;;;30.24;10.97;102025.41;5058337;28;45394;-54
2022/04/03 11:00:49;;;;;;;;;5.40;3.00;;;;;30.31;10.15;102026.94;5058922;28;45392;-54
2022/04/03 11:03:14;;;;;;;;;3.80;3.80;;;;;32.12;9.77;102034.72;5058854;28;45337;-53
2022/04/03 11:05:46;;;;;;;;;3.00;3.00;;;;;30.28;10.93;102021.09;5058767;28;45483;-54
2022/04/03 11:08:11;;;;;;;;;7.00;5.20;;;;;28.52;11.28;102029.56;5058861;28;45498;-56
2022/04/03 11:11:07;;;;;;;;;3.50;3.50;;;;;28.55;12.00;102031.84;5058609;28;46065;-54
2022/04/03 11:13:34;;;;;;;;;5.00;3.60;;;;;30.40;10.59;102016.38;5058420;28;45490;-55
2022/04/03 11:16:13;;;;;;;;;3.80;3.20;;;;;30.93;10.78;102020.56;5058746;28;45413;-56
2022/04/03 11:18:48;;;;;;;;;2.20;2.20;;;;;32.16;10.76;102013.84;5058562;28;45406;-56